createdAt,value
2022-08-18T00:01:36.773Z,100059.88
2022-08-18T00:04:34.946Z,100058.31
2022-08-18T00:06:53.354Z,100058.94
2022-08-18T00:09:20.307Z,100057.66
2022-08-18T00:11:47.260Z,100059.09
2022-08-18T00:14:21.730Z,100057.66
2022-08-18T00:16:53.683Z,100062.31
2022-08-18T00:19:43.700Z,100051.53
2022-08-18T00:22:14.583Z,100064.34
2022-08-18T00:24:47.651Z,100068.00
2022-08-18T00:27:23.242Z,100085.22
2022-08-18T00:29:53.383Z,100076.16
2022-08-18T00:32:24.892Z,100072.25
2022-08-18T00:34:53.973Z,100068.41
2022-08-18T00:37:22.379Z,100076.06
2022-08-18T00:39:53.948Z,100081.13
2022-08-18T00:42:29.106Z,100079.13
2022-08-18T00:45:01.507Z,100081.94
2022-08-18T00:47:42.078Z,100074.16
2022-08-18T00:50:41.298Z,100074.94
2022-08-18T00:53:13.622Z,100081.84
2022-08-18T00:55:49.293Z,100078.75
2022-08-18T00:58:34.473Z,100077.34
2022-08-18T01:01:08.830Z,100070.44
2022-08-18T01:03:40.088Z,100075.28
2022-08-18T01:06:11.718Z,100077.13
2022-08-18T01:08:40.464Z,100066.91
2022-08-18T01:11:07.939Z,100079.84
2022-08-18T01:13:38.845Z,100076.38
2022-08-18T01:16:25.980Z,100070.78
2022-08-18T01:19:12.403Z,100067.56
2022-08-18T01:21:53.904Z,100072.31
2022-08-18T01:24:47.594Z,100075.47
2022-08-18T01:27:18.863Z,100083.22
2022-08-18T01:29:48.159Z,100086.00
2022-08-18T01:32:19.769Z,100078.13
2022-08-18T01:34:48.888Z,100069.16
2022-08-18T01:37:23.075Z,100067.69
2022-08-18T01:41:21.763Z,100071.00
2022-08-18T01:42:38.778Z,100074.66
2022-08-18T01:45:08.234Z,100069.53
2022-08-18T01:47:47.668Z,100074.91
2022-08-18T01:50:17.517Z,100065.19
2022-08-18T01:52:44.681Z,100063.75
2022-08-18T01:55:11.685Z,100066.34
2022-08-18T01:57:45.057Z,100071.63
2022-08-18T02:00:17.807Z,100065.88
2022-08-18T02:02:45.340Z,100064.44
2022-08-18T02:05:31.126Z,100062.75
2022-08-18T02:07:58.438Z,100067.28
2022-08-18T02:10:25.656Z,100066.22
2022-08-18T02:12:52.580Z,100054.88
2022-08-18T02:15:19.509Z,100057.22
2022-08-18T02:17:47.147Z,100059.19
2022-08-18T02:20:17.340Z,100053.91
2022-08-18T02:22:45.043Z,100058.66
2022-08-18T02:25:13.473Z,100055.97
2022-08-18T02:27:40.874Z,100065.59
2022-08-18T02:30:12.705Z,100062.84
2022-08-18T02:32:39.874Z,100071.19
2022-08-18T02:35:11.969Z,100071.91
2022-08-18T02:37:43.336Z,100065.91
2022-08-18T02:40:15.131Z,100074.31
2022-08-18T02:42:44.698Z,100067.09
2022-08-18T02:45:13.425Z,100066.38
2022-08-18T02:47:40.582Z,100066.28
2022-08-18T02:50:10.967Z,100070.88
2022-08-18T02:52:40.519Z,100075.59
2022-08-18T02:55:09.034Z,100079.22
2022-08-18T02:57:36.527Z,100083.59
2022-08-18T03:00:04.513Z,100080.59
2022-08-18T03:02:32.138Z,100081.41
2022-08-18T03:04:59.132Z,100089.34
2022-08-18T03:07:26.057Z,100085.91
2022-08-18T03:09:53.076Z,100084.81
2022-08-18T03:12:20.147Z,100086.03
2022-08-18T03:14:47.116Z,100100.13
2022-08-18T03:17:15.170Z,100095.06
2022-08-18T03:19:46.876Z,100094.47
2022-08-18T03:22:28.041Z,100103.91
2022-08-18T03:24:57.366Z,100104.53
2022-08-18T03:27:24.723Z,100107.53
2022-08-18T03:29:51.952Z,100102.47
2022-08-18T03:32:18.983Z,100110.94
2022-08-18T03:34:46.001Z,100115.53
2022-08-18T03:37:15.992Z,100120.38
2022-08-18T03:39:43.065Z,100121.88
2022-08-18T03:42:10.127Z,100116.78
2022-08-18T03:44:37.543Z,100130.25
2022-08-18T03:47:09.158Z,100128.91
2022-08-18T03:49:37.820Z,100135.69
2022-08-18T03:52:09.836Z,100129.75
2022-08-18T03:54:39.019Z,100134.13
2022-08-18T03:57:09.527Z,100137.06
2022-08-18T03:59:36.745Z,100137.25
2022-08-18T04:02:05.448Z,100141.34
2022-08-18T04:04:32.533Z,100136.09
2022-08-18T04:07:05.657Z,100147.81
2022-08-18T04:09:34.212Z,100154.69
2022-08-18T04:12:15.414Z,100147.59
2022-08-18T04:14:48.176Z,100145.66
2022-08-18T04:17:24.404Z,100155.44
2022-08-18T04:19:56.019Z,100163.38
2022-08-18T04:22:25.351Z,100158.25
2022-08-18T04:24:53.254Z,100153.25
2022-08-18T04:27:21.894Z,100158.81
2022-08-18T04:29:49.662Z,100166.19
2022-08-18T04:32:17.344Z,100158.41
2022-08-18T04:34:44.593Z,100156.47
2022-08-18T04:37:14.038Z,100164.22
2022-08-18T04:39:41.636Z,100165.19
2022-08-18T04:42:08.656Z,100166.19
2022-08-18T04:44:38.050Z,100165.69
2022-08-18T04:47:07.962Z,100172.19
2022-08-18T04:49:36.210Z,100169.59
2022-08-18T04:52:40.789Z,100173.00
2022-08-18T04:55:10.416Z,100169.19
2022-08-18T04:57:37.401Z,100161.00
2022-08-18T05:00:06.534Z,100178.28
2022-08-18T05:02:33.703Z,100167.09
2022-08-18T05:05:03.558Z,100169.22
2022-08-18T05:07:30.620Z,100173.75
2022-08-18T05:09:57.502Z,100176.41
2022-08-18T05:12:26.311Z,100162.28
2022-08-18T05:14:57.167Z,100171.16
2022-08-18T05:17:29.071Z,100182.69
2022-08-18T05:19:57.690Z,100173.84
2022-08-18T05:22:28.563Z,100180.06
2022-08-18T05:24:58.361Z,100185.25
2022-08-18T05:27:25.344Z,100189.69
2022-08-18T05:29:52.461Z,100186.19
2022-08-18T05:32:38.334Z,100186.66
2022-08-18T05:35:15.287Z,100185.22
2022-08-18T05:38:15.695Z,100186.28
2022-08-18T05:40:44.252Z,100188.16
2022-08-18T05:43:11.442Z,100194.97
2022-08-18T05:45:40.980Z,100193.50
2022-08-18T05:48:08.132Z,100188.81
2022-08-18T05:50:37.459Z,100182.00
2022-08-18T05:53:20.590Z,100191.72
2022-08-18T05:56:22.581Z,100188.56
2022-08-18T05:58:55.820Z,100187.28
2022-08-18T06:01:30.336Z,100194.72
2022-08-18T06:04:01.771Z,100193.59
2022-08-18T06:06:31.007Z,100202.75
2022-08-18T06:09:25.851Z,100198.16
2022-08-18T06:11:57.707Z,100204.41
2022-08-18T06:14:25.408Z,100198.44
2022-08-18T06:16:56.004Z,100205.59
2022-08-18T06:19:39.211Z,100203.44
2022-08-18T06:22:23.824Z,100198.72
2022-08-18T06:25:02.451Z,100193.59
2022-08-18T06:27:58.964Z,100203.00
2022-08-18T06:30:37.678Z,100202.13
2022-08-18T06:33:33.678Z,100203.59
2022-08-18T06:36:18.780Z,100211.22
2022-08-18T06:39:42.465Z,100197.78
2022-08-18T06:42:31.890Z,100206.22
2022-08-18T06:45:02.694Z,100194.72
2022-08-18T06:48:18.040Z,100204.63
2022-08-18T06:50:49.249Z,100192.22
2022-08-18T06:53:18.916Z,100200.84
2022-08-18T06:55:55.997Z,100201.31
2022-08-18T06:58:30.779Z,100197.94
2022-08-18T07:01:05.838Z,100208.50
2022-08-18T07:03:35.589Z,100206.22
2022-08-18T07:06:23.709Z,100204.28
2022-08-18T07:08:55.588Z,100207.84
2022-08-18T07:11:34.529Z,100206.53
2022-08-18T07:14:21.450Z,100205.22
2022-08-18T07:16:58.784Z,100208.03
2022-08-18T07:19:30.330Z,100209.88
2022-08-18T07:22:13.726Z,100221.44
2022-08-18T07:24:45.521Z,100211.00
2022-08-18T07:27:40.542Z,100212.63
2022-08-18T07:30:15.563Z,100208.00
2022-08-18T07:32:46.334Z,100205.69
2022-08-18T07:35:19.743Z,100193.84
2022-08-18T07:37:56.552Z,100212.16
2022-08-18T07:40:42.839Z,100205.78
2022-08-18T07:43:17.517Z,100206.44
2022-08-18T07:45:47.244Z,100212.00
2022-08-18T07:48:40.834Z,100210.72
2022-08-18T07:51:33.932Z,100209.84
2022-08-18T07:54:49.263Z,100214.41
2022-08-18T07:57:22.170Z,100203.69
2022-08-18T08:00:11.223Z,100200.47
2022-08-18T08:02:50.569Z,100205.47
2022-08-18T08:05:35.106Z,100206.13
2022-08-18T08:08:15.495Z,100196.66
2022-08-18T08:11:07.526Z,100191.75
2022-08-18T08:13:59.394Z,100196.38
2022-08-18T08:16:49.717Z,100198.84
2022-08-18T08:20:01.794Z,100194.28
2022-08-18T08:22:37.442Z,100196.66
2022-08-18T08:25:47.592Z,100194.94
2022-08-18T08:28:21.888Z,100199.44
2022-08-18T08:31:36.759Z,100191.97
2022-08-18T08:34:54.167Z,100184.16
2022-08-18T08:37:45.067Z,100187.09
2022-08-18T08:40:28.877Z,100194.28
2022-08-18T08:43:03.015Z,100198.72
2022-08-18T08:45:39.695Z,100188.56
2022-08-18T08:48:29.655Z,100180.69
2022-08-18T08:51:30.215Z,100184.47
2022-08-18T08:54:23.701Z,100185.00
2022-08-18T08:56:55.586Z,100187.66
2022-08-18T08:59:25.867Z,100193.47
2022-08-18T09:02:47.754Z,100198.44
2022-08-18T09:05:40.181Z,100191.59
2022-08-18T09:08:18.855Z,100183.78
2022-08-18T09:11:10.185Z,100185.41
2022-08-18T09:13:53.901Z,100192.63
2022-08-18T09:17:11.945Z,100178.63
2022-08-18T09:19:54.369Z,100181.72
2022-08-18T09:22:45.816Z,100181.72
2022-08-18T09:25:33.115Z,100182.34
2022-08-18T09:28:15.282Z,100186.56
2022-08-18T09:30:49.081Z,100180.72
2022-08-18T09:33:20.250Z,100182.28
2022-08-18T09:36:10.222Z,100173.19
2022-08-18T09:39:08.266Z,100179.00
2022-08-18T09:41:49.024Z,100175.09
2022-08-18T09:44:48.540Z,100189.56
2022-08-18T09:47:38.800Z,100188.56
2022-08-18T09:50:26.975Z,100190.16
2022-08-18T09:53:02.410Z,100183.59
2022-08-18T09:55:32.110Z,100173.88
2022-08-18T09:58:41.418Z,100174.94
2022-08-18T10:01:19.266Z,100183.06
2022-08-18T10:04:14.790Z,100178.03
2022-08-18T10:06:48.182Z,100173.59
2022-08-18T10:09:37.470Z,100169.19
2022-08-18T10:12:31.042Z,100184.56
2022-08-18T10:15:09.085Z,100172.81
2022-08-18T10:18:01.014Z,100183.69
2022-08-18T10:20:36.246Z,100163.19
2022-08-18T10:23:04.635Z,100159.00
2022-08-18T10:25:47.378Z,100167.22
2022-08-18T10:29:05.694Z,100163.16
2022-08-18T10:31:58.813Z,100175.69
2022-08-18T10:34:49.188Z,100166.03
2022-08-18T10:37:49.026Z,100160.91
2022-08-18T10:40:26.438Z,100170.44
2022-08-18T10:43:45.288Z,100167.13
2022-08-18T10:48:57.469Z,100171.09
2022-08-18T10:52:03.803Z,100170.78
2022-08-18T10:57:46.372Z,100166.22
2022-08-18T11:00:19.455Z,100163.75
2022-08-18T11:03:01.899Z,100169.97
2022-08-18T11:05:40.223Z,100166.41
2022-08-18T11:08:17.420Z,100166.09
2022-08-18T11:11:24.788Z,100155.56
2022-08-18T11:14:03.842Z,100160.34
2022-08-18T11:17:01.634Z,100159.56
2022-08-18T11:19:29.185Z,100170.22
2022-08-18T11:21:57.035Z,100166.47
2022-08-18T11:24:27.278Z,100160.44
2022-08-18T11:27:00.289Z,100160.09
2022-08-18T11:29:41.620Z,100169.94
2022-08-18T11:32:12.044Z,100174.56
2022-08-18T11:34:51.938Z,100173.13
2022-08-18T11:37:27.218Z,100158.06
2022-08-18T11:39:58.202Z,100164.59
2022-08-18T11:42:35.914Z,100159.16
2022-08-18T11:45:24.691Z,100152.03
2022-08-18T11:48:39.111Z,100163.91
2022-08-18T11:51:23.677Z,100161.25
2022-08-18T11:54:01.247Z,100169.59
2022-08-18T11:56:31.145Z,100175.56
2022-08-18T11:59:00.178Z,100143.75
2022-08-18T12:01:40.845Z,100139.44
2022-08-18T12:04:29.001Z,100146.88
2022-08-18T12:06:56.334Z,100152.88
2022-08-18T12:12:32.570Z,100158.09
2022-08-18T12:15:25.782Z,100149.97
2022-08-18T12:17:56.655Z,100158.53
2022-08-18T12:20:25.108Z,100150.91
2022-08-18T12:22:56.892Z,100158.38
2022-08-18T12:25:25.720Z,100152.72
2022-08-18T12:27:55.931Z,100148.13
2022-08-18T12:30:23.412Z,100155.94
2022-08-18T12:32:55.832Z,100157.91
2022-08-18T12:35:23.677Z,100153.09
2022-08-18T12:37:59.463Z,100149.16
2022-08-18T12:40:27.672Z,100145.31
2022-08-18T12:42:55.961Z,100143.25
2022-08-18T12:45:24.644Z,100138.41
2022-08-18T12:47:51.759Z,100131.16
2022-08-18T12:50:20.273Z,100139.88
2022-08-18T12:52:59.078Z,100136.88
2022-08-18T12:55:28.095Z,100129.22
2022-08-18T12:57:55.372Z,100132.19
2022-08-18T13:00:27.789Z,100132.16
2022-08-18T13:02:57.143Z,100127.44
2022-08-18T13:05:26.672Z,100124.31
2022-08-18T13:08:04.443Z,100133.59
2022-08-18T13:10:42.850Z,100124.69
2022-08-18T13:13:19.000Z,100130.75
2022-08-18T13:15:58.046Z,100140.00
2022-08-18T13:18:28.943Z,100127.59
2022-08-18T13:20:59.535Z,100125.31
2022-08-18T13:23:27.758Z,100129.00
2022-08-18T13:26:01.617Z,100139.91
2022-08-18T13:28:36.059Z,100128.91
2022-08-18T13:31:20.973Z,100121.75
2022-08-18T13:33:56.654Z,100133.56
2022-08-18T13:36:27.019Z,100133.75
2022-08-18T13:38:56.920Z,100135.47
2022-08-18T13:43:57.132Z,100129.84
2022-08-18T13:46:31.109Z,100136.19
2022-08-18T13:49:04.326Z,100136.47
2022-08-18T13:51:31.428Z,100139.50
2022-08-18T13:54:26.604Z,100142.13
2022-08-18T13:56:51.819Z,100134.69
2022-08-18T13:59:22.620Z,100128.09
2022-08-18T14:01:52.899Z,100137.13
2022-08-18T14:04:22.723Z,100142.91
2022-08-18T14:06:57.146Z,100140.09
2022-08-18T14:09:27.825Z,100140.00
2022-08-18T14:12:15.987Z,100150.16
2022-08-18T14:14:52.494Z,100165.47
2022-08-18T14:17:22.206Z,100165.28
2022-08-18T14:20:21.428Z,100151.25
2022-08-18T14:23:13.852Z,100148.69
2022-08-18T14:26:07.293Z,100148.69
2022-08-18T14:28:35.165Z,100152.84
2022-08-18T14:31:06.992Z,100149.91
2022-08-18T14:33:51.417Z,100149.69
2022-08-18T14:36:29.827Z,100155.44
2022-08-18T14:39:01.378Z,100154.00
2022-08-18T14:41:28.883Z,100143.25
2022-08-18T14:44:13.567Z,100150.13
2022-08-18T14:46:54.147Z,100148.47
2022-08-18T14:49:28.698Z,100142.44
2022-08-18T14:51:58.531Z,100151.88
2022-08-18T14:54:28.647Z,100152.00
2022-08-18T14:56:58.622Z,100168.78
2022-08-18T14:59:25.717Z,100168.53
2022-08-18T15:01:53.559Z,100161.88
2022-08-18T15:04:21.322Z,100162.91
2022-08-18T15:06:55.977Z,100154.16
2022-08-18T15:09:27.452Z,100153.28
2022-08-18T15:11:56.566Z,100147.72
2022-08-18T15:14:32.816Z,100138.75
2022-08-18T15:17:11.596Z,100137.53
2022-08-18T15:19:59.179Z,100135.88
2022-08-18T15:22:46.302Z,100137.00
2022-08-18T15:25:33.695Z,100131.13
2022-08-18T15:28:01.290Z,100137.97
2022-08-18T15:30:28.708Z,100140.78
2022-08-18T15:32:55.799Z,100142.56
2022-08-18T15:35:22.812Z,100138.63
2022-08-18T15:37:51.411Z,100135.88
2022-08-18T15:40:30.876Z,100144.63
2022-08-18T15:43:09.710Z,100141.38
2022-08-18T15:45:43.269Z,100137.88
2022-08-18T15:48:25.233Z,100132.75
2022-08-18T15:50:52.476Z,100133.91
2022-08-18T15:53:29.706Z,100139.66
2022-08-18T15:55:57.637Z,100138.28
2022-08-18T15:58:26.941Z,100132.13
2022-08-18T16:00:56.577Z,100141.53
2022-08-18T16:03:26.095Z,100136.34
2022-08-18T16:05:55.620Z,100146.19
2022-08-18T16:08:25.583Z,100145.25
2022-08-18T16:10:54.083Z,100148.84
2022-08-18T16:13:21.954Z,100153.50
2022-08-18T16:15:50.410Z,100149.44
2022-08-18T16:18:20.039Z,100150.50
2022-08-18T16:20:47.181Z,100147.22
2022-08-18T16:23:14.472Z,100150.66
2022-08-18T16:25:43.474Z,100149.13
2022-08-18T16:28:13.362Z,100158.53
2022-08-18T16:30:41.461Z,100160.97
2022-08-18T16:33:08.626Z,100155.16
2022-08-18T16:35:37.441Z,100157.81
2022-08-18T16:38:07.694Z,100159.25
2022-08-18T16:40:35.219Z,100157.13
2022-08-18T16:43:02.539Z,100155.13
2022-08-18T16:45:31.412Z,100162.38
2022-08-18T16:47:58.421Z,100152.63
2022-08-18T16:50:26.264Z,100146.88
2022-08-18T16:52:53.301Z,100140.00
2022-08-18T16:55:20.955Z,100147.38
2022-08-18T16:58:06.231Z,100158.50
2022-08-18T17:00:54.866Z,100152.28
2022-08-18T17:03:42.968Z,100155.09
2022-08-18T17:06:13.947Z,100157.41
2022-08-18T17:08:42.556Z,100162.44
2022-08-18T17:11:13.534Z,100164.50
2022-08-18T17:13:41.367Z,100165.91
2022-08-18T17:16:09.036Z,100163.09
2022-08-18T17:18:37.035Z,100159.06
2022-08-18T17:21:06.491Z,100164.78
2022-08-18T17:23:34.287Z,100167.13
2022-08-18T17:26:09.544Z,100173.44
2022-08-18T17:28:50.274Z,100170.56
2022-08-18T17:31:20.883Z,100171.66
2022-08-18T17:33:47.855Z,100168.44
2022-08-18T17:36:24.423Z,100180.94
2022-08-18T17:38:58.607Z,100184.69
2022-08-18T17:41:26.648Z,100180.16
2022-08-18T17:44:00.834Z,100193.56
2022-08-18T17:46:38.585Z,100196.00
2022-08-18T17:50:27.996Z,100193.72
2022-08-18T17:53:00.669Z,100199.41
2022-08-18T17:55:39.313Z,100196.50
2022-08-18T17:58:18.796Z,100199.81
2022-08-18T18:00:45.864Z,100203.16
2022-08-18T18:03:13.405Z,100200.47
2022-08-18T18:05:49.308Z,100210.94
2022-08-18T18:09:01.262Z,100211.66
2022-08-18T18:12:02.111Z,100217.78
2022-08-18T18:14:41.367Z,100224.81
2022-08-18T18:17:18.654Z,100225.41
2022-08-18T18:19:50.499Z,100230.09
2022-08-18T18:22:24.400Z,100225.19
2022-08-18T18:25:00.825Z,100222.25
2022-08-18T18:27:41.308Z,100230.44
2022-08-18T18:30:27.756Z,100224.19
2022-08-18T18:33:13.057Z,100225.38
2022-08-18T18:35:57.983Z,100228.22
2022-08-18T18:38:33.257Z,100219.25
2022-08-18T18:41:20.595Z,100221.44
2022-08-18T18:43:51.337Z,100226.59
2022-08-18T18:46:34.382Z,100235.97
2022-08-18T18:49:20.796Z,100238.56
2022-08-18T18:52:19.202Z,100232.03
2022-08-18T18:55:03.355Z,100225.97
2022-08-18T18:57:41.912Z,100233.09
2022-08-18T19:00:33.495Z,100232.72
2022-08-18T19:03:08.991Z,100223.09
2022-08-18T19:05:54.293Z,100234.88
2022-08-18T19:08:36.604Z,100233.75
2022-08-18T19:11:32.319Z,100220.72
2022-08-18T19:14:07.450Z,100217.00
2022-08-18T19:16:40.460Z,100213.84
2022-08-18T19:19:35.765Z,100224.34
2022-08-18T19:22:18.931Z,100234.16
2022-08-18T19:25:01.301Z,100238.69
2022-08-18T19:27:37.169Z,100248.66
2022-08-18T19:30:10.304Z,100241.75
2022-08-18T19:32:43.540Z,100243.09
2022-08-18T19:35:25.299Z,100242.59
2022-08-18T19:38:18.869Z,100230.03
2022-08-18T19:40:52.151Z,100229.59
2022-08-18T19:43:36.662Z,100239.41
2022-08-18T19:46:14.298Z,100229.59
2022-08-18T19:48:58.521Z,100230.09
2022-08-18T19:51:38.706Z,100237.69
2022-08-18T19:54:32.287Z,100226.88
2022-08-18T19:57:05.313Z,100228.72
2022-08-18T19:59:51.051Z,100226.75
2022-08-18T20:02:35.317Z,100224.88
2022-08-18T20:05:08.353Z,100227.88
2022-08-18T20:07:59.316Z,100227.28
2022-08-18T20:10:57.981Z,100226.66
2022-08-18T20:13:35.363Z,100228.59
2022-08-18T20:16:02.389Z,100231.81
2022-08-18T20:18:35.523Z,100230.78
2022-08-18T20:21:22.462Z,100228.03
2022-08-18T20:24:26.613Z,100233.94
2022-08-18T20:26:53.655Z,100233.94
2022-08-18T20:29:36.477Z,100240.75
2022-08-18T20:32:06.499Z,100239.97
2022-08-18T20:34:35.636Z,100241.56
2022-08-18T20:37:08.386Z,100244.44
2022-08-18T20:39:35.420Z,100245.31
2022-08-18T20:42:05.097Z,100242.38
2022-08-18T20:44:38.135Z,100245.31
2022-08-18T20:47:32.770Z,100241.50
2022-08-18T20:50:31.769Z,100246.53
2022-08-18T20:53:30.438Z,100239.41
2022-08-18T20:56:31.967Z,100234.28
2022-08-18T20:59:20.089Z,100241.38
2022-08-18T21:02:00.043Z,100245.31
2022-08-18T21:04:35.804Z,100232.53
2022-08-18T21:07:12.862Z,100233.13
2022-08-18T21:09:40.316Z,100228.16
2022-08-18T21:12:10.576Z,100222.78
2022-08-18T21:14:39.773Z,100232.31
2022-08-18T21:17:14.337Z,100224.63
2022-08-18T21:19:42.320Z,100213.06
2022-08-18T21:22:11.541Z,100207.88
2022-08-18T21:24:44.235Z,100210.47
2022-08-18T21:27:21.048Z,100209.81
2022-08-18T21:29:49.817Z,100206.28
2022-08-18T21:32:31.518Z,100202.94
2022-08-18T21:35:07.890Z,100203.38
2022-08-18T21:37:41.673Z,100203.97
2022-08-18T21:40:09.254Z,100193.91
2022-08-18T21:42:40.535Z,100191.59
2022-08-18T21:45:16.330Z,100185.50
2022-08-18T21:47:51.264Z,100182.75
2022-08-18T21:50:23.244Z,100184.94
2022-08-18T21:52:52.294Z,100187.97
2022-08-18T21:55:21.885Z,100187.63
2022-08-18T21:58:02.466Z,100191.31
2022-08-18T22:00:42.353Z,100179.91
2022-08-18T22:03:18.315Z,100191.13
2022-08-18T22:06:07.878Z,100196.94
2022-08-18T22:09:21.795Z,100181.97
2022-08-18T22:12:07.859Z,100174.06
2022-08-18T22:14:54.806Z,100183.34
2022-08-18T22:17:31.552Z,100184.16
2022-08-18T22:20:37.345Z,100173.44
2022-08-18T22:23:31.615Z,100180.81
2022-08-18T22:26:13.608Z,100175.88
2022-08-18T22:29:11.799Z,100178.78
2022-08-18T22:31:50.472Z,100183.44
2022-08-18T22:34:27.989Z,100180.50
2022-08-18T22:37:00.601Z,100174.16
2022-08-18T22:39:29.488Z,100171.72
2022-08-18T22:41:56.945Z,100174.31
2022-08-18T22:44:25.373Z,100173.56
2022-08-18T22:46:53.016Z,100167.81
2022-08-18T22:49:21.352Z,100170.22
2022-08-18T22:51:50.746Z,100169.75
2022-08-18T22:54:18.713Z,100171.13
2022-08-18T22:56:54.127Z,100174.81
2022-08-18T22:59:26.812Z,100170.44
2022-08-18T23:01:54.931Z,100171.72
2022-08-18T23:04:24.726Z,100170.88
2022-08-18T23:06:53.907Z,100164.38
2022-08-18T23:09:32.253Z,100173.63
2022-08-18T23:12:05.279Z,100168.25
2022-08-18T23:14:33.936Z,100169.56
2022-08-18T23:17:01.962Z,100176.00
2022-08-18T23:19:31.648Z,100174.72
2022-08-18T23:22:00.142Z,100177.66
2022-08-18T23:24:28.259Z,100179.44
2022-08-18T23:26:56.864Z,100181.69
2022-08-18T23:29:23.915Z,100182.69
2022-08-18T23:31:52.101Z,100189.25
2022-08-18T23:34:23.167Z,100176.41
2022-08-18T23:37:01.546Z,100172.63
2022-08-18T23:39:30.566Z,100171.91
2022-08-18T23:41:58.170Z,100173.44
2022-08-18T23:44:27.535Z,100166.56
2022-08-18T23:46:56.786Z,100177.00
2022-08-18T23:49:24.703Z,100181.19
2022-08-18T23:51:55.193Z,100184.44
2022-08-18T23:54:25.118Z,100178.19
2022-08-18T23:56:52.078Z,100179.56
2022-08-18T23:59:21.099Z,100183.53
